createdAt,value
2018-12-02T00:00:30.882Z,79.02
2018-12-02T00:03:13.381Z,79.11
2018-12-02T00:05:40.972Z,78.97
2018-12-02T00:08:08.579Z,78.84
2018-12-02T00:10:36.498Z,78.93
2018-12-02T00:13:04.310Z,79.05
2018-12-02T00:15:31.861Z,78.78
2018-12-02T00:18:00.332Z,78.74
2018-12-02T00:20:28.035Z,78.61
2018-12-02T00:22:55.609Z,78.87
2018-12-02T00:25:23.075Z,78.74
2018-12-02T00:27:56.030Z,78.94
2018-12-02T00:30:25.701Z,78.90
2018-12-02T00:32:53.252Z,78.99
2018-12-02T00:35:21.039Z,79.00
2018-12-02T00:37:50.387Z,78.79
2018-12-02T00:40:19.807Z,78.76
2018-12-02T00:42:48.508Z,78.76
2018-12-02T00:45:16.897Z,78.51
2018-12-02T00:47:44.407Z,78.84
2018-12-02T00:50:13.140Z,78.95
2018-12-02T00:52:40.952Z,78.86
2018-12-02T00:55:12.571Z,78.84
2018-12-02T00:57:40.164Z,78.92
2018-12-02T01:00:10.029Z,79.21
2018-12-02T01:02:37.649Z,79.07
2018-12-02T01:05:09.403Z,79.18
2018-12-02T01:07:36.946Z,79.03
2018-12-02T01:10:06.319Z,79.22
2018-12-02T01:12:33.907Z,79.02
2018-12-02T01:15:01.386Z,79.05
2018-12-02T01:17:28.850Z,79.12
2018-12-02T01:19:56.557Z,79.26
2018-12-02T01:22:24.076Z,79.10
2018-12-02T01:24:51.571Z,79.30
2018-12-02T01:27:19.238Z,79.32
2018-12-02T01:29:46.724Z,79.21
2018-12-02T01:32:14.189Z,79.47
2018-12-02T01:34:41.916Z,79.18
2018-12-02T01:37:09.599Z,79.44
2018-12-02T01:39:37.083Z,79.43
2018-12-02T01:42:04.794Z,79.30
2018-12-02T01:44:32.288Z,79.62
2018-12-02T01:46:59.768Z,79.77
2018-12-02T01:49:27.484Z,79.48
2018-12-02T01:51:55.001Z,79.24
2018-12-02T01:54:22.479Z,79.64
2018-12-02T01:56:50.432Z,79.38
2018-12-02T01:59:17.899Z,79.59
2018-12-02T02:01:45.436Z,79.54
2018-12-02T02:04:13.223Z,79.45
2018-12-02T02:06:40.696Z,79.50
2018-12-02T02:09:08.957Z,79.52
2018-12-02T02:11:37.341Z,79.52
2018-12-02T02:14:05.217Z,79.29
2018-12-02T02:16:32.876Z,79.57
2018-12-02T02:19:00.826Z,79.57
2018-12-02T02:21:28.326Z,79.56
2018-12-02T02:23:55.827Z,79.38
2018-12-02T02:26:23.427Z,79.43
2018-12-02T02:28:50.893Z,79.86
2018-12-02T02:31:18.399Z,79.65
2018-12-02T02:33:46.191Z,79.52
2018-12-02T02:36:13.710Z,79.37
2018-12-02T02:38:41.193Z,79.39
2018-12-02T02:41:08.849Z,79.48
2018-12-02T02:43:36.301Z,79.50
2018-12-02T02:46:03.852Z,79.32
2018-12-02T02:48:31.549Z,79.58
2018-12-02T02:50:59.072Z,79.62
2018-12-02T02:53:26.572Z,79.48
2018-12-02T02:55:54.382Z,79.54
2018-12-02T02:58:21.840Z,79.51
2018-12-02T03:00:49.361Z,79.56
2018-12-02T03:03:16.941Z,79.50
2018-12-02T03:05:44.453Z,79.57
2018-12-02T03:08:11.921Z,79.42
2018-12-02T03:10:39.558Z,79.24
2018-12-02T03:13:07.000Z,79.61
2018-12-02T03:15:34.540Z,79.37
2018-12-02T03:18:02.207Z,79.39
2018-12-02T03:20:29.704Z,79.41
2018-12-02T03:22:57.210Z,79.29
2018-12-02T03:25:25.847Z,79.32
2018-12-02T03:27:53.530Z,79.55
2018-12-02T03:30:21.955Z,79.54
2018-12-02T03:32:49.623Z,79.24
2018-12-02T03:35:20.899Z,79.43
2018-12-02T03:37:48.442Z,79.38
2018-12-02T03:40:19.960Z,79.66
2018-12-02T03:42:47.693Z,79.36
2018-12-02T03:45:16.207Z,78.97
2018-12-02T03:47:43.917Z,79.41
2018-12-02T03:50:17.555Z,78.92
2018-12-02T03:52:40.991Z,79.03
2018-12-02T03:55:09.080Z,79.34
2018-12-02T03:57:36.735Z,78.82
2018-12-02T04:00:12.647Z,78.91
2018-12-02T04:02:40.238Z,78.61
2018-12-02T04:05:08.325Z,78.84
2018-12-02T04:07:36.090Z,78.84
2018-12-02T04:10:04.615Z,78.92
2018-12-02T04:12:32.107Z,78.72
2018-12-02T04:14:59.751Z,78.75
2018-12-02T04:17:27.259Z,78.58
2018-12-02T04:19:54.761Z,78.71
2018-12-02T04:22:22.525Z,78.43
2018-12-02T04:24:50.077Z,78.62
2018-12-02T04:27:17.556Z,78.53
2018-12-02T04:29:45.208Z,78.77
2018-12-02T04:32:12.698Z,78.85
2018-12-02T04:34:40.255Z,78.71
2018-12-02T04:37:08.027Z,78.73
2018-12-02T04:39:35.460Z,78.70
2018-12-02T04:42:02.977Z,78.71
2018-12-02T04:44:30.637Z,78.50
2018-12-02T04:46:59.198Z,78.54
2018-12-02T04:49:26.664Z,78.26
2018-12-02T04:51:54.296Z,78.25
2018-12-02T04:54:21.769Z,78.51
2018-12-02T04:56:49.282Z,78.36
2018-12-02T04:59:17.010Z,78.39
2018-12-02T05:01:44.487Z,78.13
2018-12-02T05:04:12.033Z,77.99
2018-12-02T05:06:39.839Z,78.32
2018-12-02T05:09:07.411Z,78.25
2018-12-02T05:11:34.902Z,78.19
2018-12-02T05:14:02.719Z,78.25
2018-12-02T05:16:30.230Z,78.16
2018-12-02T05:18:57.734Z,78.26
2018-12-02T05:21:25.355Z,78.06
2018-12-02T05:23:53.227Z,77.95
2018-12-02T05:26:20.673Z,78.18
2018-12-02T05:28:48.265Z,78.41
2018-12-02T05:31:15.749Z,78.24
2018-12-02T05:33:43.202Z,78.30
2018-12-02T05:36:10.839Z,78.08
2018-12-02T05:38:38.317Z,78.26
2018-12-02T05:41:05.853Z,78.48
2018-12-02T05:43:33.525Z,78.20
2018-12-02T05:46:00.993Z,78.33
2018-12-02T05:48:28.476Z,78.18
2018-12-02T05:50:56.184Z,78.60
2018-12-02T05:53:23.674Z,78.42
2018-12-02T05:55:51.141Z,78.44
2018-12-02T05:58:18.806Z,78.45
2018-12-02T06:00:46.315Z,78.32
2018-12-02T06:03:13.819Z,78.33
2018-12-02T06:05:41.537Z,78.42
2018-12-02T06:08:09.066Z,78.38
2018-12-02T06:10:36.529Z,78.29
2018-12-02T06:13:04.369Z,78.30
2018-12-02T06:15:31.859Z,78.53
2018-12-02T06:17:59.354Z,78.57
2018-12-02T06:20:27.039Z,78.35
2018-12-02T06:22:56.169Z,78.51
2018-12-02T06:25:23.751Z,78.22
2018-12-02T06:27:51.506Z,78.40
2018-12-02T06:30:20.786Z,78.31
2018-12-02T06:32:49.470Z,78.34
2018-12-02T06:35:17.085Z,78.26
2018-12-02T06:37:44.576Z,78.38
2018-12-02T06:40:14.083Z,78.38
2018-12-02T06:42:41.695Z,78.48
2018-12-02T06:45:10.059Z,78.41
2018-12-02T06:47:37.587Z,78.36
2018-12-02T06:50:08.782Z,78.88
2018-12-02T06:52:36.286Z,78.69
2018-12-02T06:55:10.020Z,78.63
2018-12-02T06:57:40.791Z,78.88
2018-12-02T07:03:24.082Z,78.63
2018-12-02T07:05:51.552Z,78.61
2018-12-02T07:08:19.033Z,78.82
2018-12-02T07:10:46.670Z,78.68
2018-12-02T07:13:14.174Z,78.93
2018-12-02T07:15:41.746Z,78.82
2018-12-02T07:18:15.044Z,78.91
2018-12-02T07:20:42.514Z,78.94
2018-12-02T07:23:10.649Z,78.63
2018-12-02T07:25:42.623Z,78.86
2018-12-02T07:28:10.104Z,78.74
2018-12-02T07:30:37.639Z,78.64
2018-12-02T07:33:05.877Z,79.21
2018-12-02T07:35:33.373Z,78.81
2018-12-02T07:38:04.106Z,78.39
2018-12-02T07:40:34.094Z,78.45
2018-12-02T07:43:02.293Z,78.37
2018-12-02T07:45:29.764Z,78.77
2018-12-02T07:47:57.419Z,78.54
2018-12-02T07:50:24.983Z,78.73
2018-12-02T07:52:52.454Z,78.61
2018-12-02T07:55:20.073Z,78.64
2018-12-02T07:57:47.822Z,78.86
2018-12-02T08:00:15.811Z,78.66
2018-12-02T08:02:43.558Z,78.66
2018-12-02T08:05:14.992Z,78.54
2018-12-02T08:07:42.941Z,78.36
2018-12-02T08:10:13.861Z,78.56
2018-12-02T08:12:41.336Z,78.43
2018-12-02T08:15:10.251Z,78.62
2018-12-02T08:17:38.115Z,78.57
2018-12-02T08:20:09.658Z,78.47
2018-12-02T08:22:37.234Z,78.38
2018-12-02T08:25:05.713Z,78.60
2018-12-02T08:27:33.155Z,78.75
2018-12-02T08:30:00.691Z,78.64
2018-12-02T08:32:28.320Z,78.60
2018-12-02T08:34:55.850Z,78.52
2018-12-02T08:37:23.300Z,78.41
2018-12-02T08:39:50.906Z,78.42
2018-12-02T08:42:18.406Z,78.61
2018-12-02T08:44:45.853Z,78.60
2018-12-02T08:47:13.530Z,78.59
2018-12-02T08:49:41.018Z,78.49
2018-12-02T08:52:08.569Z,78.75
2018-12-02T08:54:36.303Z,78.21
2018-12-02T08:57:03.770Z,78.65
2018-12-02T08:59:31.311Z,78.27
2018-12-02T09:01:58.976Z,78.41
2018-12-02T09:04:26.520Z,78.50
2018-12-02T09:06:54.047Z,78.63
2018-12-02T09:09:21.784Z,78.18
2018-12-02T09:11:49.303Z,78.50
2018-12-02T09:14:16.873Z,78.44
2018-12-02T09:16:44.495Z,78.50
2018-12-02T09:19:11.950Z,78.45
2018-12-02T09:21:39.495Z,78.23
2018-12-02T09:24:07.321Z,78.55
2018-12-02T09:26:34.823Z,78.31
2018-12-02T09:29:02.270Z,78.30
2018-12-02T09:31:29.862Z,78.34
2018-12-02T09:33:57.329Z,78.17
2018-12-02T09:36:24.829Z,78.10
2018-12-02T09:38:52.465Z,78.19
2018-12-02T09:41:19.984Z,78.06
2018-12-02T09:43:47.471Z,78.29
2018-12-02T09:46:15.268Z,78.21
2018-12-02T09:48:42.683Z,78.31
2018-12-02T09:51:10.175Z,78.12
2018-12-02T09:53:37.834Z,77.91
2018-12-02T09:56:05.959Z,78.23
2018-12-02T09:58:33.488Z,78.23
2018-12-02T10:01:01.252Z,78.03
2018-12-02T10:03:28.756Z,77.84
2018-12-02T10:05:56.276Z,77.99
2018-12-02T10:08:23.943Z,78.06
2018-12-02T10:10:51.437Z,77.83
2018-12-02T10:13:20.574Z,77.72
2018-12-02T10:15:48.206Z,77.95
2018-12-02T10:18:15.700Z,77.77
2018-12-02T10:20:43.221Z,77.98
2018-12-02T10:23:11.090Z,78.19
2018-12-02T10:25:38.648Z,78.05
2018-12-02T10:28:06.738Z,78.08
2018-12-02T10:30:34.797Z,77.83
2018-12-02T10:33:02.299Z,78.02
2018-12-02T10:35:29.701Z,77.94
2018-12-02T10:37:57.349Z,77.95
2018-12-02T10:40:25.816Z,78.11
2018-12-02T10:42:53.336Z,78.07
2018-12-02T10:45:25.338Z,78.14
2018-12-02T10:47:54.814Z,77.86
2018-12-02T10:50:27.375Z,77.79
2018-12-02T10:52:57.036Z,77.83
2018-12-02T10:55:45.301Z,77.77
2018-12-02T10:58:17.081Z,77.72
2018-12-02T11:00:50.591Z,77.64
2018-12-02T11:03:18.007Z,78.12
2018-12-02T11:05:45.497Z,78.00
2018-12-02T11:08:13.266Z,77.98
2018-12-02T11:10:40.800Z,77.90
2018-12-02T11:13:08.389Z,78.10
2018-12-02T11:15:36.172Z,77.92
2018-12-02T11:18:03.975Z,77.84
2018-12-02T11:20:31.484Z,77.68
2018-12-02T11:22:59.199Z,77.98
2018-12-02T11:25:26.689Z,77.75
2018-12-02T11:27:54.167Z,77.91
2018-12-02T11:30:21.922Z,77.66
2018-12-02T11:32:49.451Z,77.61
2018-12-02T11:35:17.821Z,77.72
2018-12-02T11:37:46.017Z,77.38
2018-12-02T11:40:15.599Z,77.49
2018-12-02T11:42:43.063Z,77.27
2018-12-02T11:45:11.774Z,77.52
2018-12-02T11:47:39.736Z,77.25
2018-12-02T11:50:17.358Z,77.24
2018-12-02T11:52:44.969Z,77.37
2018-12-02T11:55:13.319Z,77.26
2018-12-02T11:57:41.002Z,77.67
2018-12-02T12:00:14.749Z,77.58
2018-12-02T12:02:42.395Z,77.73
2018-12-02T12:05:10.611Z,77.67
2018-12-02T12:07:38.508Z,77.58
2018-12-02T12:10:15.288Z,77.85
2018-12-02T12:12:42.831Z,77.68
2018-12-02T12:15:19.278Z,77.61
2018-12-02T12:17:47.293Z,77.84
2018-12-02T12:20:18.782Z,77.59
2018-12-02T12:22:46.318Z,77.59
2018-12-02T12:25:13.867Z,77.59
2018-12-02T12:27:41.499Z,77.36
2018-12-02T12:30:16.003Z,77.73
2018-12-02T12:32:43.550Z,77.36
2018-12-02T12:35:13.005Z,77.54
2018-12-02T12:37:40.519Z,77.57
2018-12-02T12:40:14.336Z,77.35
2018-12-02T12:43:13.852Z,77.68
2018-12-02T12:45:41.313Z,77.34
2018-12-02T12:48:08.799Z,77.41
2018-12-02T12:50:36.415Z,77.34
2018-12-02T12:53:04.188Z,77.31
2018-12-02T12:55:31.687Z,77.34
2018-12-02T12:57:59.314Z,77.57
2018-12-02T13:00:26.830Z,77.19
2018-12-02T13:02:54.519Z,77.29
2018-12-02T13:05:24.166Z,77.47
2018-12-02T13:07:52.024Z,77.60
2018-12-02T13:10:19.597Z,77.56
2018-12-02T13:12:47.142Z,77.57
2018-12-02T13:15:16.486Z,77.62
2018-12-02T13:17:51.260Z,77.63
2018-12-02T13:20:18.900Z,77.63
2018-12-02T13:22:46.423Z,77.65
2018-12-02T13:25:14.645Z,77.57
2018-12-02T13:27:43.079Z,77.80
2018-12-02T13:30:14.464Z,77.71
2018-12-02T13:32:42.174Z,77.86
2018-12-02T13:35:10.063Z,78.09
2018-12-02T13:37:37.582Z,78.16
2018-12-02T13:40:15.612Z,77.89
2018-12-02T13:42:45.351Z,77.87
2018-12-02T13:45:15.917Z,77.90
2018-12-02T13:47:43.430Z,78.14
2018-12-02T13:50:15.869Z,78.17
2018-12-02T13:52:43.661Z,77.99
2018-12-02T13:55:17.017Z,77.84
2018-12-02T13:57:44.921Z,78.30
2018-12-02T14:00:16.499Z,78.22
2018-12-02T14:02:44.985Z,78.17
2018-12-02T14:05:12.642Z,78.17
2018-12-02T14:07:40.158Z,78.05
2018-12-02T14:10:09.803Z,78.21
2018-12-02T14:12:37.328Z,78.36
2018-12-02T14:15:15.680Z,78.20
2018-12-02T14:17:44.550Z,78.16
2018-12-02T14:20:12.098Z,78.16
2018-12-02T14:22:39.641Z,78.04
2018-12-02T14:25:10.593Z,78.21
2018-12-02T14:27:38.439Z,78.37
2018-12-02T14:30:10.342Z,78.39
2018-12-02T14:32:37.843Z,78.27
2018-12-02T14:35:06.387Z,78.19
2018-12-02T14:37:33.920Z,78.47
2018-12-02T14:40:01.405Z,78.57
2018-12-02T14:42:28.907Z,78.57
2018-12-02T14:44:56.386Z,78.59
2018-12-02T14:47:23.906Z,78.70
2018-12-02T14:49:51.381Z,78.67
2018-12-02T14:52:19.132Z,78.58
2018-12-02T14:54:46.679Z,79.14
2018-12-02T14:57:14.129Z,78.90
2018-12-02T14:59:41.578Z,78.93
2018-12-02T15:02:09.085Z,78.82
2018-12-02T15:04:36.503Z,78.62
2018-12-02T15:07:04.357Z,79.02
2018-12-02T15:09:31.880Z,78.92
2018-12-02T15:11:59.444Z,78.83
2018-12-02T15:14:26.937Z,78.76
2018-12-02T15:16:54.446Z,78.82
2018-12-02T15:19:21.975Z,78.81
2018-12-02T15:21:49.520Z,78.84
2018-12-02T15:24:17.055Z,78.70
2018-12-02T15:26:44.556Z,78.90
2018-12-02T15:29:12.103Z,79.02
2018-12-02T15:31:39.622Z,78.70
2018-12-02T15:34:07.143Z,78.97
2018-12-02T15:36:34.672Z,78.66
2018-12-02T15:39:02.362Z,78.94
2018-12-02T15:41:29.858Z,78.60
2018-12-02T15:43:57.415Z,78.66
2018-12-02T15:46:24.960Z,78.53
2018-12-02T15:48:52.395Z,78.64
2018-12-02T15:51:19.944Z,78.66
2018-12-02T15:53:47.594Z,78.39
2018-12-02T15:56:15.056Z,78.87
2018-12-02T15:58:42.590Z,78.45
2018-12-02T16:01:10.256Z,78.70
2018-12-02T16:03:37.757Z,78.74
2018-12-02T16:06:05.457Z,78.74
2018-12-02T16:08:33.003Z,78.71
2018-12-02T16:11:00.491Z,78.75
2018-12-02T16:13:28.044Z,78.70
2018-12-02T16:15:55.490Z,78.68
2018-12-02T16:18:23.023Z,78.76
2018-12-02T16:20:52.676Z,78.69
2018-12-02T16:23:22.142Z,78.49
2018-12-02T16:25:49.713Z,78.58
2018-12-02T16:28:17.286Z,78.93
2018-12-02T16:30:44.899Z,78.82
2018-12-02T16:33:12.447Z,78.86
2018-12-02T16:35:39.976Z,78.91
2018-12-02T16:38:09.187Z,79.05
2018-12-02T16:40:36.742Z,78.95
2018-12-02T16:43:04.276Z,78.91
2018-12-02T16:45:31.743Z,78.91
2018-12-02T16:47:59.281Z,78.88
2018-12-02T16:50:29.034Z,79.14
2018-12-02T16:53:00.679Z,79.01
2018-12-02T16:55:30.591Z,78.97
2018-12-02T16:58:11.139Z,78.91
2018-12-02T17:00:48.882Z,79.07
2018-12-02T17:03:16.395Z,79.50
2018-12-02T17:05:43.900Z,79.29
2018-12-02T17:08:11.439Z,79.32
2018-12-02T17:10:39.087Z,79.61
2018-12-02T17:13:06.333Z,79.41
2018-12-02T17:16:36.441Z,79.46
2018-12-02T17:19:04.134Z,79.52
2018-12-02T17:21:31.691Z,79.29
2018-12-02T17:23:59.297Z,79.32
2018-12-02T17:26:26.819Z,79.66
2018-12-02T17:28:54.321Z,79.81
2018-12-02T17:31:24.540Z,79.53
2018-12-02T17:33:52.069Z,79.65
2018-12-02T17:36:19.661Z,79.50
2018-12-02T17:38:48.531Z,79.56
2018-12-02T17:41:16.145Z,79.76
2018-12-02T17:43:43.689Z,80.02
2018-12-02T17:46:11.244Z,79.59
2018-12-02T17:48:38.741Z,79.63
2018-12-02T17:51:07.033Z,79.82
2018-12-02T17:53:34.666Z,79.91
2018-12-02T17:56:02.188Z,79.69
2018-12-02T17:58:29.700Z,79.88
2018-12-02T18:00:57.190Z,79.95
2018-12-02T18:03:31.016Z,79.72
2018-12-02T18:05:58.496Z,79.96
2018-12-02T18:08:25.928Z,79.80
2018-12-02T18:10:53.700Z,80.01
2018-12-02T18:13:21.211Z,80.13
2018-12-02T18:15:48.728Z,79.90
2018-12-02T18:18:16.270Z,80.04
2018-12-02T18:20:43.759Z,79.90
2018-12-02T18:23:11.241Z,79.65
2018-12-02T18:25:38.717Z,79.94
2018-12-02T18:28:06.276Z,80.03
2018-12-02T18:30:33.807Z,79.73
2018-12-02T18:33:02.350Z,79.93
2018-12-02T18:35:37.265Z,79.88
2018-12-02T18:38:09.099Z,80.11
2018-12-02T18:40:37.367Z,79.64
2018-12-02T18:43:05.838Z,79.86
2018-12-02T18:45:33.317Z,79.64
2018-12-02T18:48:00.860Z,79.93
2018-12-02T18:50:28.415Z,79.97
2018-12-02T18:52:55.862Z,79.96
2018-12-02T18:55:23.330Z,80.10
2018-12-02T18:57:50.898Z,79.93
2018-12-02T19:00:23.863Z,79.96
2018-12-02T19:02:53.122Z,80.24
2018-12-02T19:05:20.540Z,79.88
2018-12-02T19:07:48.070Z,80.00
2018-12-02T19:10:17.447Z,79.90
2018-12-02T19:12:45.054Z,80.07
2018-12-02T19:15:13.610Z,80.11
2018-12-02T19:17:41.243Z,80.05
2018-12-02T19:20:12.104Z,80.18
2018-12-02T19:22:39.661Z,79.92
2018-12-02T19:25:09.593Z,80.31
2018-12-02T19:27:37.316Z,80.14
2018-12-02T19:30:08.383Z,80.30
2018-12-02T19:32:35.859Z,80.33
2018-12-02T19:35:03.854Z,80.37
2018-12-02T19:37:31.458Z,80.24
2018-12-02T19:39:58.946Z,80.18
2018-12-02T19:42:26.406Z,80.18
2018-12-02T19:44:53.904Z,80.38
2018-12-02T19:47:21.462Z,80.22
2018-12-02T19:49:48.888Z,80.38
2018-12-02T19:52:16.378Z,80.11
2018-12-02T19:54:43.918Z,80.25
2018-12-02T19:57:11.418Z,80.17
2018-12-02T19:59:38.916Z,80.15
2018-12-02T20:02:06.615Z,80.03
2018-12-02T20:04:34.167Z,80.22
2018-12-02T20:07:01.692Z,80.11
2018-12-02T20:09:29.208Z,80.25
2018-12-02T20:11:56.765Z,80.19
2018-12-02T20:14:24.356Z,80.22
2018-12-02T20:16:51.841Z,80.12
2018-12-02T20:21:25.746Z,80.17
2018-12-02T20:23:59.014Z,79.99
2018-12-02T20:26:26.535Z,79.78
2018-12-02T20:28:56.106Z,80.00
2018-12-02T20:31:25.364Z,80.31
2018-12-02T20:33:52.875Z,80.47
2018-12-02T20:36:20.404Z,80.45
2018-12-02T20:38:47.898Z,80.16
2018-12-02T20:41:15.376Z,80.31
2018-12-02T20:43:42.898Z,80.31
2018-12-02T20:46:40.943Z,80.27
2018-12-02T20:49:08.477Z,80.20
2018-12-02T20:51:36.009Z,80.23
2018-12-02T20:54:03.509Z,80.27
2018-12-02T20:56:31.004Z,80.40
2018-12-02T20:58:58.438Z,80.15
2018-12-02T21:01:25.900Z,80.19
2018-12-02T21:03:53.437Z,80.26
2018-12-02T21:06:21.530Z,80.27
2018-12-02T21:08:49.061Z,80.46
2018-12-02T21:11:16.700Z,80.21
2018-12-02T21:13:44.250Z,80.17
2018-12-02T21:16:11.937Z,80.35
2018-12-02T21:18:39.516Z,80.15
2018-12-02T21:21:06.982Z,80.17
2018-12-02T21:23:34.456Z,80.29
2018-12-02T21:26:02.452Z,80.15
2018-12-02T21:28:29.961Z,80.19
2018-12-02T21:30:57.483Z,80.14
2018-12-02T21:33:24.970Z,80.23
2018-12-02T21:35:52.672Z,80.31
2018-12-02T21:38:20.151Z,80.47
2018-12-02T21:40:47.613Z,80.33
2018-12-02T21:43:15.093Z,80.33
2018-12-02T21:45:42.593Z,80.23
2018-12-02T21:48:13.624Z,80.44
2018-12-02T21:50:41.336Z,80.14
2018-12-02T21:53:08.820Z,80.38
2018-12-02T21:55:36.325Z,80.42
2018-12-02T21:58:03.848Z,80.19
2018-12-02T22:00:36.950Z,80.25
2018-12-02T22:03:04.553Z,80.45
2018-12-02T22:05:32.042Z,80.28
2018-12-02T22:07:59.618Z,80.49
2018-12-02T22:10:30.033Z,80.39
2018-12-02T22:12:56.974Z,80.32
2018-12-02T22:15:24.459Z,80.26
2018-12-02T22:17:52.258Z,80.44
2018-12-02T22:20:19.787Z,80.55
2018-12-02T22:22:47.331Z,80.42
2018-12-02T22:25:16.529Z,80.37
2018-12-02T22:27:46.283Z,80.29
2018-12-02T22:30:14.887Z,80.54
2018-12-02T22:32:42.303Z,80.48
2018-12-02T22:35:11.601Z,80.56
2018-12-02T22:37:39.182Z,80.58
2018-12-02T22:40:09.771Z,80.48
2018-12-02T22:42:37.214Z,80.59
2018-12-02T22:45:08.281Z,80.78
2018-12-02T22:47:35.775Z,80.73
2018-12-02T22:50:03.441Z,80.87
2018-12-02T22:52:30.887Z,80.49
2018-12-02T22:54:58.390Z,80.79
2018-12-02T22:57:25.826Z,80.79
2018-12-02T22:59:53.351Z,80.58
2018-12-02T23:02:27.496Z,80.64
2018-12-02T23:04:55.004Z,80.66
2018-12-02T23:07:22.556Z,80.77
2018-12-02T23:09:50.029Z,80.68
2018-12-02T23:12:17.528Z,80.88
2018-12-02T23:14:45.152Z,80.64
2018-12-02T23:17:19.761Z,80.70
2018-12-02T23:19:47.501Z,80.69
2018-12-02T23:22:15.051Z,81.03
2018-12-02T23:24:42.538Z,80.74
2018-12-02T23:27:10.103Z,80.90
2018-12-02T23:29:37.708Z,80.92
2018-12-02T23:32:05.332Z,80.63
2018-12-02T23:34:32.827Z,80.58
2018-12-02T23:37:00.388Z,80.84
2018-12-02T23:39:27.887Z,80.83
2018-12-02T23:41:55.352Z,80.96
2018-12-02T23:44:22.833Z,81.00
2018-12-02T23:46:50.307Z,81.10
2018-12-02T23:49:17.834Z,80.82
2018-12-02T23:51:45.259Z,81.08
2018-12-02T23:54:12.730Z,81.00
2018-12-02T23:56:40.243Z,80.88
2018-12-02T23:59:07.771Z,80.98
